sensor_id;sensor_type;location;lat;lon;timestamp;temperature;humidity
69901;DHT22;57183;50.930;5.406;2023-05-07T00:01:56;14.90;99.90
69901;DHT22;57183;50.930;5.406;2023-05-07T00:04:26;14.90;99.90
69901;DHT22;57183;50.930;5.406;2023-05-07T00:07:00;14.90;99.90
69901;DHT22;57183;50.930;5.406;2023-05-07T00:09:27;14.80;99.90
69901;DHT22;57183;50.930;5.406;2023-05-07T00:11:53;14.70;99.90
69901;DHT22;57183;50.930;5.406;2023-05-07T00:14:19;14.90;99.90
69901;DHT22;57183;50.930;5.406;2023-05-07T00:16:48;14.90;99.90
69901;DHT22;57183;50.930;5.406;2023-05-07T00:19:14;15.00;99.90
69901;DHT22;57183;50.930;5.406;2023-05-07T00:21:40;15.10;99.90
69901;DHT22;57183;50.930;5.406;2023-05-07T00:24:08;15.10;99.90
69901;DHT22;57183;50.930;5.406;2023-05-07T00:26:34;15.20;99.90
69901;DHT22;57183;50.930;5.406;2023-05-07T00:29:00;15.10;99.90
69901;DHT22;57183;50.930;5.406;2023-05-07T00:31:46;15.10;99.90
69901;DHT22;57183;50.930;5.406;2023-05-07T00:34:18;15.20;99.90
69901;DHT22;57183;50.930;5.406;2023-05-07T00:36:48;15.00;99.90
69901;DHT22;57183;50.930;5.406;2023-05-07T00:39:16;15.00;99.90
69901;DHT22;57183;50.930;5.406;2023-05-07T00:41:43;14.90;99.90
69901;DHT22;57183;50.930;5.406;2023-05-07T00:44:11;15.10;99.90
69901;DHT22;57183;50.930;5.406;2023-05-07T00:46:38;15.00;99.90
69901;DHT22;57183;50.930;5.406;2023-05-07T00:49:04;14.90;99.90
69901;DHT22;57183;50.930;5.406;2023-05-07T00:51:31;15.10;99.90
69901;DHT22;57183;50.930;5.406;2023-05-07T00:54:02;15.30;99.90
69901;DHT22;57183;50.930;5.406;2023-05-07T00:56:31;15.40;99.90
69901;DHT22;57183;50.930;5.406;2023-05-07T00:59:09;15.40;99.90
69901;DHT22;57183;50.930;5.406;2023-05-07T01:01:36;15.30;99.90
69901;DHT22;57183;50.930;5.406;2023-05-07T01:04:05;15.50;99.90
69901;DHT22;57183;50.930;5.406;2023-05-07T01:06:33;15.40;99.90
69901;DHT22;57183;50.930;5.406;2023-05-07T01:09:08;15.60;99.90
69901;DHT22;57183;50.930;5.406;2023-05-07T01:11:34;15.70;99.90
69901;DHT22;57183;50.930;5.406;2023-05-07T01:14:02;15.70;99.90
69901;DHT22;57183;50.930;5.406;2023-05-07T01:16:31;15.60;99.90
69901;DHT22;57183;50.930;5.406;2023-05-07T01:19:02;15.40;99.90
69901;DHT22;57183;50.930;5.406;2023-05-07T01:21:32;15.40;99.90
69901;DHT22;57183;50.930;5.406;2023-05-07T01:23:59;15.20;99.90
69901;DHT22;57183;50.930;5.406;2023-05-07T01:26:27;15.20;99.90
69901;DHT22;57183;50.930;5.406;2023-05-07T01:28:54;15.10;99.90
69901;DHT22;57183;50.930;5.406;2023-05-07T01:31:23;15.20;99.90
69901;DHT22;57183;50.930;5.406;2023-05-07T01:33:53;15.20;99.90
69901;DHT22;57183;50.930;5.406;2023-05-07T01:36:20;15.30;99.90
69901;DHT22;57183;50.930;5.406;2023-05-07T01:38:48;15.20;99.90
69901;DHT22;57183;50.930;5.406;2023-05-07T01:41:17;15.20;99.90
69901;DHT22;57183;50.930;5.406;2023-05-07T01:43:50;15.20;99.90
69901;DHT22;57183;50.930;5.406;2023-05-07T01:46:18;15.20;99.90
69901;DHT22;57183;50.930;5.406;2023-05-07T01:48:49;15.50;99.90
69901;DHT22;57183;50.930;5.406;2023-05-07T01:51:23;15.70;99.90
69901;DHT22;57183;50.930;5.406;2023-05-07T01:53:58;15.80;99.90
69901;DHT22;57183;50.930;5.406;2023-05-07T01:56:24;15.60;99.90
69901;DHT22;57183;50.930;5.406;2023-05-07T01:58:50;15.50;99.90
69901;DHT22;57183;50.930;5.406;2023-05-07T02:01:17;15.50;99.90
69901;DHT22;57183;50.930;5.406;2023-05-07T02:03:44;15.40;99.90
69901;DHT22;57183;50.930;5.406;2023-05-07T02:06:19;15.40;99.90
69901;DHT22;57183;50.930;5.406;2023-05-07T02:08:50;15.30;99.90
69901;DHT22;57183;50.930;5.406;2023-05-07T02:11:19;15.20;99.90
69901;DHT22;57183;50.930;5.406;2023-05-07T02:13:49;15.20;99.90
69901;DHT22;57183;50.930;5.406;2023-05-07T02:16:15;15.30;99.90
69901;DHT22;57183;50.930;5.406;2023-05-07T02:18:41;15.10;99.90
69901;DHT22;57183;50.930;5.406;2023-05-07T02:21:07;15.10;99.90
69901;DHT22;57183;50.930;5.406;2023-05-07T02:23:34;15.20;99.90
69901;DHT22;57183;50.930;5.406;2023-05-07T02:29:23;15.10;99.90
69901;DHT22;57183;50.930;5.406;2023-05-07T02:31:55;15.20;99.90
69901;DHT22;57183;50.930;5.406;2023-05-07T02:34:22;15.20;99.90
69901;DHT22;57183;50.930;5.406;2023-05-07T02:36:49;15.10;99.90
69901;DHT22;57183;50.930;5.406;2023-05-07T02:39:17;14.90;99.90
69901;DHT22;57183;50.930;5.406;2023-05-07T02:41:49;14.90;99.90
69901;DHT22;57183;50.930;5.406;2023-05-07T02:44:14;14.80;99.90
69901;DHT22;57183;50.930;5.406;2023-05-07T02:46:40;14.80;99.90
69901;DHT22;57183;50.930;5.406;2023-05-07T02:49:06;14.90;99.90
69901;DHT22;57183;50.930;5.406;2023-05-07T02:51:36;14.80;99.90
69901;DHT22;57183;50.930;5.406;2023-05-07T02:54:13;14.80;99.90
69901;DHT22;57183;50.930;5.406;2023-05-07T02:56:52;14.90;99.90
69901;DHT22;57183;50.930;5.406;2023-05-07T02:59:39;14.80;99.90
69901;DHT22;57183;50.930;5.406;2023-05-07T03:02:04;14.80;99.90
69901;DHT22;57183;50.930;5.406;2023-05-07T03:04:30;14.70;99.90
69901;DHT22;57183;50.930;5.406;2023-05-07T03:06:56;14.70;99.90
69901;DHT22;57183;50.930;5.406;2023-05-07T03:09:31;14.60;99.90
69901;DHT22;57183;50.930;5.406;2023-05-07T03:11:57;14.60;99.90
69901;DHT22;57183;50.930;5.406;2023-05-07T03:14:25;14.50;99.90
69901;DHT22;57183;50.930;5.406;2023-05-07T03:16:54;14.70;99.90
69901;DHT22;57183;50.930;5.406;2023-05-07T03:19:23;15.00;99.90
69901;DHT22;57183;50.930;5.406;2023-05-07T03:21:48;15.10;99.90
69901;DHT22;57183;50.930;5.406;2023-05-07T03:24:14;14.90;99.90
69901;DHT22;57183;50.930;5.406;2023-05-07T03:26:42;14.80;99.90
69901;DHT22;57183;50.930;5.406;2023-05-07T03:29:09;14.90;99.90
69901;DHT22;57183;50.930;5.406;2023-05-07T03:31:36;14.90;99.90
69901;DHT22;57183;50.930;5.406;2023-05-07T03:34:02;14.90;99.90
69901;DHT22;57183;50.930;5.406;2023-05-07T03:36:41;14.90;99.90
69901;DHT22;57183;50.930;5.406;2023-05-07T03:39:06;14.90;99.90
69901;DHT22;57183;50.930;5.406;2023-05-07T03:41:41;14.80;99.90
69901;DHT22;57183;50.930;5.406;2023-05-07T03:44:11;14.80;99.90
69901;DHT22;57183;50.930;5.406;2023-05-07T03:46:38;14.70;99.90
69901;DHT22;57183;50.930;5.406;2023-05-07T03:49:14;14.80;99.90
69901;DHT22;57183;50.930;5.406;2023-05-07T03:51:43;14.90;99.90
69901;DHT22;57183;50.930;5.406;2023-05-07T03:54:34;15.10;99.90
69901;DHT22;57183;50.930;5.406;2023-05-07T03:57:07;14.90;99.90
69901;DHT22;57183;50.930;5.406;2023-05-07T03:59:33;14.80;99.90
69901;DHT22;57183;50.930;5.406;2023-05-07T04:02:01;14.70;99.90
69901;DHT22;57183;50.930;5.406;2023-05-07T04:04:32;14.80;99.90
69901;DHT22;57183;50.930;5.406;2023-05-07T04:07:01;14.80;99.90
69901;DHT22;57183;50.930;5.406;2023-05-07T04:09:45;14.70;99.90
69901;DHT22;57183;50.930;5.406;2023-05-07T04:12:21;14.80;99.90
69901;DHT22;57183;50.930;5.406;2023-05-07T04:14:54;15.00;99.90
69901;DHT22;57183;50.930;5.406;2023-05-07T04:17:44;14.90;99.90
69901;DHT22;57183;50.930;5.406;2023-05-07T04:21:13;14.70;99.90
69901;DHT22;57183;50.930;5.406;2023-05-07T04:23:38;14.70;99.90
69901;DHT22;57183;50.930;5.406;2023-05-07T04:26:29;14.70;99.90
69901;DHT22;57183;50.930;5.406;2023-05-07T04:28:55;14.70;99.90
69901;DHT22;57183;50.930;5.406;2023-05-07T04:31:29;14.80;99.90
69901;DHT22;57183;50.930;5.406;2023-05-07T04:33:56;14.90;99.90
69901;DHT22;57183;50.930;5.406;2023-05-07T04:36:21;15.00;99.90
69901;DHT22;57183;50.930;5.406;2023-05-07T04:38:47;15.10;99.90
69901;DHT22;57183;50.930;5.406;2023-05-07T04:41:21;15.10;99.90
69901;DHT22;57183;50.930;5.406;2023-05-07T04:43:51;15.10;99.90
69901;DHT22;57183;50.930;5.406;2023-05-07T04:46:20;15.10;99.90
69901;DHT22;57183;50.930;5.406;2023-05-07T04:48:56;15.10;99.90
69901;DHT22;57183;50.930;5.406;2023-05-07T04:51:49;15.30;99.90
69901;DHT22;57183;50.930;5.406;2023-05-07T04:54:14;15.30;99.90
69901;DHT22;57183;50.930;5.406;2023-05-07T04:59:21;15.40;99.90
69901;DHT22;57183;50.930;5.406;2023-05-07T05:02:10;15.40;99.90
69901;DHT22;57183;50.930;5.406;2023-05-07T05:04:36;15.60;99.90
69901;DHT22;57183;50.930;5.406;2023-05-07T05:07:15;15.70;99.90
69901;DHT22;57183;50.930;5.406;2023-05-07T05:09:47;15.60;99.90
69901;DHT22;57183;50.930;5.406;2023-05-07T05:15:07;15.70;99.90
69901;DHT22;57183;50.930;5.406;2023-05-07T05:17:33;15.70;99.90
69901;DHT22;57183;50.930;5.406;2023-05-07T05:20:01;15.80;99.90
69901;DHT22;57183;50.930;5.406;2023-05-07T05:22:38;16.10;99.90
69901;DHT22;57183;50.930;5.406;2023-05-07T05:25:04;16.20;99.90
69901;DHT22;57183;50.930;5.406;2023-05-07T05:30:53;16.40;99.90
69901;DHT22;57183;50.930;5.406;2023-05-07T05:36:06;16.50;99.90
69901;DHT22;57183;50.930;5.406;2023-05-07T05:38:33;16.60;99.90
69901;DHT22;57183;50.930;5.406;2023-05-07T05:41:04;16.60;99.90
69901;DHT22;57183;50.930;5.406;2023-05-07T05:43:33;16.70;99.90
69901;DHT22;57183;50.930;5.406;2023-05-07T05:45:59;16.80;99.90
69901;DHT22;57183;50.930;5.406;2023-05-07T05:48:25;17.10;99.90
69901;DHT22;57183;50.930;5.406;2023-05-07T05:50:52;17.20;99.90
69901;DHT22;57183;50.930;5.406;2023-05-07T05:53:18;17.50;99.90
69901;DHT22;57183;50.930;5.406;2023-05-07T05:55:56;17.60;99.90
69901;DHT22;57183;50.930;5.406;2023-05-07T05:58:22;17.80;99.90
69901;DHT22;57183;50.930;5.406;2023-05-07T06:00:47;17.90;99.90
69901;DHT22;57183;50.930;5.406;2023-05-07T06:03:13;18.00;99.90
69901;DHT22;57183;50.930;5.406;2023-05-07T06:05:39;18.10;99.90
69901;DHT22;57183;50.930;5.406;2023-05-07T06:08:05;18.10;99.90
69901;DHT22;57183;50.930;5.406;2023-05-07T06:10:31;18.20;99.90
69901;DHT22;57183;50.930;5.406;2023-05-07T06:12:56;18.20;99.90
69901;DHT22;57183;50.930;5.406;2023-05-07T06:15:22;18.30;99.90
69901;DHT22;57183;50.930;5.406;2023-05-07T06:17:48;18.40;99.90
69901;DHT22;57183;50.930;5.406;2023-05-07T06:20:14;18.40;99.90
69901;DHT22;57183;50.930;5.406;2023-05-07T06:22:40;18.40;99.90
69901;DHT22;57183;50.930;5.406;2023-05-07T06:25:06;18.50;99.90
69901;DHT22;57183;50.930;5.406;2023-05-07T06:27:32;18.60;99.90
69901;DHT22;57183;50.930;5.406;2023-05-07T06:29:57;18.70;99.90
69901;DHT22;57183;50.930;5.406;2023-05-07T06:32:23;18.70;99.90
69901;DHT22;57183;50.930;5.406;2023-05-07T06:34:49;18.70;99.90
69901;DHT22;57183;50.930;5.406;2023-05-07T06:37:14;18.70;99.90
69901;DHT22;57183;50.930;5.406;2023-05-07T06:39:40;18.80;99.90
69901;DHT22;57183;50.930;5.406;2023-05-07T06:42:06;18.90;99.90
69901;DHT22;57183;50.930;5.406;2023-05-07T06:44:32;18.90;99.90
69901;DHT22;57183;50.930;5.406;2023-05-07T06:46:57;19.00;99.90
69901;DHT22;57183;50.930;5.406;2023-05-07T06:49:23;19.10;99.90
69901;DHT22;57183;50.930;5.406;2023-05-07T06:51:49;19.20;99.90
69901;DHT22;57183;50.930;5.406;2023-05-07T06:54:14;19.10;99.90
69901;DHT22;57183;50.930;5.406;2023-05-07T06:56:40;19.10;99.90
69901;DHT22;57183;50.930;5.406;2023-05-07T06:59:06;19.20;99.90
69901;DHT22;57183;50.930;5.406;2023-05-07T07:01:32;19.20;99.90
69901;DHT22;57183;50.930;5.406;2023-05-07T07:03:57;19.30;99.90
69901;DHT22;57183;50.930;5.406;2023-05-07T07:06:23;19.30;99.90
69901;DHT22;57183;50.930;5.406;2023-05-07T07:08:49;19.40;99.90
69901;DHT22;57183;50.930;5.406;2023-05-07T07:11:15;19.40;99.90
69901;DHT22;57183;50.930;5.406;2023-05-07T07:13:41;19.40;99.90
69901;DHT22;57183;50.930;5.406;2023-05-07T07:16:08;19.50;99.90
69901;DHT22;57183;50.930;5.406;2023-05-07T07:18:33;19.60;99.90
69901;DHT22;57183;50.930;5.406;2023-05-07T07:20:59;19.70;99.90
69901;DHT22;57183;50.930;5.406;2023-05-07T07:23:25;19.80;99.90
69901;DHT22;57183;50.930;5.406;2023-05-07T07:25:51;20.00;99.90
69901;DHT22;57183;50.930;5.406;2023-05-07T07:28:17;20.10;99.90
69901;DHT22;57183;50.930;5.406;2023-05-07T07:30:42;20.20;99.90
69901;DHT22;57183;50.930;5.406;2023-05-07T07:33:08;20.40;99.90
69901;DHT22;57183;50.930;5.406;2023-05-07T07:35:34;20.50;99.90
69901;DHT22;57183;50.930;5.406;2023-05-07T07:38:00;20.50;99.90
69901;DHT22;57183;50.930;5.406;2023-05-07T07:40:26;20.70;99.90
69901;DHT22;57183;50.930;5.406;2023-05-07T07:42:53;20.80;99.90
69901;DHT22;57183;50.930;5.406;2023-05-07T07:45:19;20.80;99.90
69901;DHT22;57183;50.930;5.406;2023-05-07T07:47:45;20.90;99.90
69901;DHT22;57183;50.930;5.406;2023-05-07T07:50:10;20.90;99.90
69901;DHT22;57183;50.930;5.406;2023-05-07T07:52:36;21.10;99.90
69901;DHT22;57183;50.930;5.406;2023-05-07T07:55:02;21.20;99.90
69901;DHT22;57183;50.930;5.406;2023-05-07T07:57:29;21.40;99.90
69901;DHT22;57183;50.930;5.406;2023-05-07T07:59:54;21.40;99.90
69901;DHT22;57183;50.930;5.406;2023-05-07T08:02:20;21.60;99.90
69901;DHT22;57183;50.930;5.406;2023-05-07T08:04:46;21.80;99.90
69901;DHT22;57183;50.930;5.406;2023-05-07T08:07:12;21.90;99.90
69901;DHT22;57183;50.930;5.406;2023-05-07T08:09:39;22.00;99.90
69901;DHT22;57183;50.930;5.406;2023-05-07T08:12:06;22.20;99.90
69901;DHT22;57183;50.930;5.406;2023-05-07T08:14:32;22.20;99.90
69901;DHT22;57183;50.930;5.406;2023-05-07T08:16:58;22.30;99.90
69901;DHT22;57183;50.930;5.406;2023-05-07T08:19:23;22.30;99.90
69901;DHT22;57183;50.930;5.406;2023-05-07T08:21:50;22.40;99.90
69901;DHT22;57183;50.930;5.406;2023-05-07T08:24:16;22.50;99.90
69901;DHT22;57183;50.930;5.406;2023-05-07T08:26:44;22.50;99.90
69901;DHT22;57183;50.930;5.406;2023-05-07T08:29:10;22.50;99.90
69901;DHT22;57183;50.930;5.406;2023-05-07T08:31:36;22.40;99.90
69901;DHT22;57183;50.930;5.406;2023-05-07T08:34:03;22.20;99.90
69901;DHT22;57183;50.930;5.406;2023-05-07T08:36:28;22.10;99.90
69901;DHT22;57183;50.930;5.406;2023-05-07T08:38:54;21.90;99.90
69901;DHT22;57183;50.930;5.406;2023-05-07T08:41:20;21.90;99.90
69901;DHT22;57183;50.930;5.406;2023-05-07T08:43:48;21.90;99.90
69901;DHT22;57183;50.930;5.406;2023-05-07T08:46:20;21.90;99.90
69901;DHT22;57183;50.930;5.406;2023-05-07T08:48:49;21.80;99.90
69901;DHT22;57183;50.930;5.406;2023-05-07T08:51:18;21.80;99.90
69901;DHT22;57183;50.930;5.406;2023-05-07T08:53:44;21.80;99.90
69901;DHT22;57183;50.930;5.406;2023-05-07T08:56:11;21.80;99.90
69901;DHT22;57183;50.930;5.406;2023-05-07T08:58:37;21.90;99.90
69901;DHT22;57183;50.930;5.406;2023-05-07T09:01:09;21.80;99.90
69901;DHT22;57183;50.930;5.406;2023-05-07T09:03:37;21.90;99.90
69901;DHT22;57183;50.930;5.406;2023-05-07T09:06:03;21.90;99.90
69901;DHT22;57183;50.930;5.406;2023-05-07T09:08:29;22.00;99.90
69901;DHT22;57183;50.930;5.406;2023-05-07T09:10:55;22.10;99.90
69901;DHT22;57183;50.930;5.406;2023-05-07T09:13:21;22.00;99.90
69901;DHT22;57183;50.930;5.406;2023-05-07T09:15:46;22.10;99.90
69901;DHT22;57183;50.930;5.406;2023-05-07T09:18:12;22.20;99.90
69901;DHT22;57183;50.930;5.406;2023-05-07T09:20:38;21.90;99.90
69901;DHT22;57183;50.930;5.406;2023-05-07T09:23:06;22.00;99.90
69901;DHT22;57183;50.930;5.406;2023-05-07T09:25:33;22.10;99.90
69901;DHT22;57183;50.930;5.406;2023-05-07T09:28:00;21.80;99.90
69901;DHT22;57183;50.930;5.406;2023-05-07T09:30:32;22.10;99.90
69901;DHT22;57183;50.930;5.406;2023-05-07T09:32:59;22.30;99.90
69901;DHT22;57183;50.930;5.406;2023-05-07T09:35:25;22.50;99.90
69901;DHT22;57183;50.930;5.406;2023-05-07T09:37:58;22.70;99.90
69901;DHT22;57183;50.930;5.406;2023-05-07T09:40:26;22.90;99.90
69901;DHT22;57183;50.930;5.406;2023-05-07T09:42:53;23.10;99.90
69901;DHT22;57183;50.930;5.406;2023-05-07T09:45:28;23.00;99.90
69901;DHT22;57183;50.930;5.406;2023-05-07T09:47:58;22.80;99.90
69901;DHT22;57183;50.930;5.406;2023-05-07T09:50:30;22.50;99.90
69901;DHT22;57183;50.930;5.406;2023-05-07T09:52:58;22.20;99.90
69901;DHT22;57183;50.930;5.406;2023-05-07T09:55:24;22.20;99.90
69901;DHT22;57183;50.930;5.406;2023-05-07T09:57:52;22.10;99.90
69901;DHT22;57183;50.930;5.406;2023-05-07T10:00:22;22.10;99.90
69901;DHT22;57183;50.930;5.406;2023-05-07T10:02:49;22.20;99.90
69901;DHT22;57183;50.930;5.406;2023-05-07T10:05:18;22.30;99.90
69901;DHT22;57183;50.930;5.406;2023-05-07T10:07:44;22.30;99.90
69901;DHT22;57183;50.930;5.406;2023-05-07T10:10:10;22.20;99.90
69901;DHT22;57183;50.930;5.406;2023-05-07T10:12:36;22.10;99.90
69901;DHT22;57183;50.930;5.406;2023-05-07T10:15:11;21.90;99.90
69901;DHT22;57183;50.930;5.406;2023-05-07T10:17:38;21.80;99.90
69901;DHT22;57183;50.930;5.406;2023-05-07T10:20:04;21.90;99.90
69901;DHT22;57183;50.930;5.406;2023-05-07T10:22:44;22.00;99.90
69901;DHT22;57183;50.930;5.406;2023-05-07T10:25:22;21.90;99.90
69901;DHT22;57183;50.930;5.406;2023-05-07T10:27:50;21.60;99.90
69901;DHT22;57183;50.930;5.406;2023-05-07T10:33:10;21.30;99.90
69901;DHT22;57183;50.930;5.406;2023-05-07T10:35:42;21.10;99.90
69901;DHT22;57183;50.930;5.406;2023-05-07T10:38:08;21.00;99.90
69901;DHT22;57183;50.930;5.406;2023-05-07T10:40:35;21.00;99.90
69901;DHT22;57183;50.930;5.406;2023-05-07T10:43:02;21.00;99.90
69901;DHT22;57183;50.930;5.406;2023-05-07T10:45:30;21.00;99.90
69901;DHT22;57183;50.930;5.406;2023-05-07T10:50:36;21.10;99.90
69901;DHT22;57183;50.930;5.406;2023-05-07T10:55:51;21.10;99.90
69901;DHT22;57183;50.930;5.406;2023-05-07T10:58:24;21.00;99.90
69901;DHT22;57183;50.930;5.406;2023-05-07T11:01:00;20.90;99.90
69901;DHT22;57183;50.930;5.406;2023-05-07T11:03:27;20.80;99.90
69901;DHT22;57183;50.930;5.406;2023-05-07T11:06:10;20.70;99.90
69901;DHT22;57183;50.930;5.406;2023-05-07T11:08:52;20.70;99.90
69901;DHT22;57183;50.930;5.406;2023-05-07T11:11:18;20.60;99.90
69901;DHT22;57183;50.930;5.406;2023-05-07T11:13:48;20.70;99.90
69901;DHT22;57183;50.930;5.406;2023-05-07T11:16:21;20.60;99.90
69901;DHT22;57183;50.930;5.406;2023-05-07T11:18:49;20.50;99.90
69901;DHT22;57183;50.930;5.406;2023-05-07T11:21:35;20.20;99.90
69901;DHT22;57183;50.930;5.406;2023-05-07T11:24:02;20.20;99.90
69901;DHT22;57183;50.930;5.406;2023-05-07T11:26:30;20.10;99.90
69901;DHT22;57183;50.930;5.406;2023-05-07T11:28:57;20.00;99.90
69901;DHT22;57183;50.930;5.406;2023-05-07T11:31:26;19.80;99.90
69901;DHT22;57183;50.930;5.406;2023-05-07T11:33:54;19.60;99.90
69901;DHT22;57183;50.930;5.406;2023-05-07T11:36:22;19.40;99.90
69901;DHT22;57183;50.930;5.406;2023-05-07T11:38:47;19.30;99.90
69901;DHT22;57183;50.930;5.406;2023-05-07T11:41:13;19.10;99.90
69901;DHT22;57183;50.930;5.406;2023-05-07T11:43:53;19.10;99.90
69901;DHT22;57183;50.930;5.406;2023-05-07T11:46:20;19.00;99.90
69901;DHT22;57183;50.930;5.406;2023-05-07T11:48:46;19.00;99.90
69901;DHT22;57183;50.930;5.406;2023-05-07T11:51:12;18.90;99.90
69901;DHT22;57183;50.930;5.406;2023-05-07T11:53:40;18.90;99.90
69901;DHT22;57183;50.930;5.406;2023-05-07T11:56:11;19.10;99.90
69901;DHT22;57183;50.930;5.406;2023-05-07T11:58:37;19.20;99.90
69901;DHT22;57183;50.930;5.406;2023-05-07T12:01:03;19.50;99.90
69901;DHT22;57183;50.930;5.406;2023-05-07T12:03:29;19.60;99.90
69901;DHT22;57183;50.930;5.406;2023-05-07T12:05:55;19.70;99.90
69901;DHT22;57183;50.930;5.406;2023-05-07T12:08:21;19.70;99.90
69901;DHT22;57183;50.930;5.406;2023-05-07T12:10:49;19.60;99.90
69901;DHT22;57183;50.930;5.406;2023-05-07T12:13:25;19.60;99.90
69901;DHT22;57183;50.930;5.406;2023-05-07T12:15:55;19.50;99.90
69901;DHT22;57183;50.930;5.406;2023-05-07T12:18:22;19.20;99.90
69901;DHT22;57183;50.930;5.406;2023-05-07T12:20:48;19.00;99.90
69901;DHT22;57183;50.930;5.406;2023-05-07T12:23:15;18.90;99.90
69901;DHT22;57183;50.930;5.406;2023-05-07T12:25:43;19.00;99.90
69901;DHT22;57183;50.930;5.406;2023-05-07T12:28:21;18.90;99.90
69901;DHT22;57183;50.930;5.406;2023-05-07T12:30:48;18.90;99.90
69901;DHT22;57183;50.930;5.406;2023-05-07T12:33:24;19.00;99.90
69901;DHT22;57183;50.930;5.406;2023-05-07T12:35:50;19.00;99.90
69901;DHT22;57183;50.930;5.406;2023-05-07T12:38:17;19.10;99.90
69901;DHT22;57183;50.930;5.406;2023-05-07T12:40:44;19.10;99.90
69901;DHT22;57183;50.930;5.406;2023-05-07T12:43:24;19.30;99.90
69901;DHT22;57183;50.930;5.406;2023-05-07T12:45:55;19.30;99.90
69901;DHT22;57183;50.930;5.406;2023-05-07T12:48:23;19.30;99.90
69901;DHT22;57183;50.930;5.406;2023-05-07T12:50:53;19.40;99.90
69901;DHT22;57183;50.930;5.406;2023-05-07T12:53:25;19.30;99.90
69901;DHT22;57183;50.930;5.406;2023-05-07T12:55:56;19.50;99.90
69901;DHT22;57183;50.930;5.406;2023-05-07T12:58:28;19.50;99.90
69901;DHT22;57183;50.930;5.406;2023-05-07T13:00:56;19.40;99.90
69901;DHT22;57183;50.930;5.406;2023-05-07T13:03:25;19.70;99.90
69901;DHT22;57183;50.930;5.406;2023-05-07T13:05:52;20.00;99.90
69901;DHT22;57183;50.930;5.406;2023-05-07T13:08:30;19.90;99.90
69901;DHT22;57183;50.930;5.406;2023-05-07T13:10:58;20.10;99.90
69901;DHT22;57183;50.930;5.406;2023-05-07T13:13:25;20.00;99.90
69901;DHT22;57183;50.930;5.406;2023-05-07T13:15:51;19.90;99.90
69901;DHT22;57183;50.930;5.406;2023-05-07T13:18:17;20.10;99.90
69901;DHT22;57183;50.930;5.406;2023-05-07T13:20:43;20.20;99.90
69901;DHT22;57183;50.930;5.406;2023-05-07T13:23:09;20.30;99.90
69901;DHT22;57183;50.930;5.406;2023-05-07T13:25:34;20.10;99.90
69901;DHT22;57183;50.930;5.406;2023-05-07T13:28:00;20.00;99.90
69901;DHT22;57183;50.930;5.406;2023-05-07T13:30:26;20.10;99.90
69901;DHT22;57183;50.930;5.406;2023-05-07T13:32:55;20.10;99.90
69901;DHT22;57183;50.930;5.406;2023-05-07T13:35:21;20.20;99.90
69901;DHT22;57183;50.930;5.406;2023-05-07T13:37:47;20.40;99.90
69901;DHT22;57183;50.930;5.406;2023-05-07T13:40:17;20.40;99.90
69901;DHT22;57183;50.930;5.406;2023-05-07T13:42:44;20.60;99.90
69901;DHT22;57183;50.930;5.406;2023-05-07T13:45:10;20.50;99.90
69901;DHT22;57183;50.930;5.406;2023-05-07T13:47:36;20.60;99.90
69901;DHT22;57183;50.930;5.406;2023-05-07T13:50:01;20.80;99.90
69901;DHT22;57183;50.930;5.406;2023-05-07T13:52:27;20.70;99.90
69901;DHT22;57183;50.930;5.406;2023-05-07T13:54:53;20.50;99.90
69901;DHT22;57183;50.930;5.406;2023-05-07T13:57:20;20.40;99.90
69901;DHT22;57183;50.930;5.406;2023-05-07T13:59:46;20.50;99.90
69901;DHT22;57183;50.930;5.406;2023-05-07T14:02:11;20.50;99.90
69901;DHT22;57183;50.930;5.406;2023-05-07T14:04:37;20.50;99.90
69901;DHT22;57183;50.930;5.406;2023-05-07T14:07:03;20.60;99.90
69901;DHT22;57183;50.930;5.406;2023-05-07T14:09:29;20.40;99.90
69901;DHT22;57183;50.930;5.406;2023-05-07T14:11:55;20.50;99.90
69901;DHT22;57183;50.930;5.406;2023-05-07T14:14:21;20.50;99.90
69901;DHT22;57183;50.930;5.406;2023-05-07T14:16:46;20.50;99.90
69901;DHT22;57183;50.930;5.406;2023-05-07T14:19:12;20.60;99.90
69901;DHT22;57183;50.930;5.406;2023-05-07T14:21:38;20.80;99.90
69901;DHT22;57183;50.930;5.406;2023-05-07T14:24:06;20.70;99.90
69901;DHT22;57183;50.930;5.406;2023-05-07T14:26:32;20.70;99.90
69901;DHT22;57183;50.930;5.406;2023-05-07T14:28:58;20.80;99.90
69901;DHT22;57183;50.930;5.406;2023-05-07T14:31:24;21.00;99.90
69901;DHT22;57183;50.930;5.406;2023-05-07T14:33:50;21.20;99.90
69901;DHT22;57183;50.930;5.406;2023-05-07T14:36:16;21.30;99.90
69901;DHT22;57183;50.930;5.406;2023-05-07T14:38:43;21.40;99.90
69901;DHT22;57183;50.930;5.406;2023-05-07T14:41:08;21.40;99.90
69901;DHT22;57183;50.930;5.406;2023-05-07T14:43:34;21.50;99.90
69901;DHT22;57183;50.930;5.406;2023-05-07T14:46:00;21.30;99.90
69901;DHT22;57183;50.930;5.406;2023-05-07T14:48:25;21.40;99.90
69901;DHT22;57183;50.930;5.406;2023-05-07T14:50:51;21.40;99.90
69901;DHT22;57183;50.930;5.406;2023-05-07T14:53:16;21.40;99.90
69901;DHT22;57183;50.930;5.406;2023-05-07T14:55:42;21.10;99.90
69901;DHT22;57183;50.930;5.406;2023-05-07T14:58:08;21.10;99.90
69901;DHT22;57183;50.930;5.406;2023-05-07T15:00:34;21.00;99.90
69901;DHT22;57183;50.930;5.406;2023-05-07T15:03:06;21.10;99.90
69901;DHT22;57183;50.930;5.406;2023-05-07T15:05:32;21.20;99.90
69901;DHT22;57183;50.930;5.406;2023-05-07T15:07:58;21.30;99.90
69901;DHT22;57183;50.930;5.406;2023-05-07T15:10:24;21.20;99.90
69901;DHT22;57183;50.930;5.406;2023-05-07T15:12:49;21.00;99.90
69901;DHT22;57183;50.930;5.406;2023-05-07T15:15:15;20.90;99.90
69901;DHT22;57183;50.930;5.406;2023-05-07T15:17:41;20.80;99.90
69901;DHT22;57183;50.930;5.406;2023-05-07T15:20:07;20.80;99.90
69901;DHT22;57183;50.930;5.406;2023-05-07T15:22:34;20.80;99.90
69901;DHT22;57183;50.930;5.406;2023-05-07T15:25:01;20.70;99.90
69901;DHT22;57183;50.930;5.406;2023-05-07T15:27:27;20.70;99.90
69901;DHT22;57183;50.930;5.406;2023-05-07T15:29:53;20.70;99.90
69901;DHT22;57183;50.930;5.406;2023-05-07T15:32:18;20.70;99.90
69901;DHT22;57183;50.930;5.406;2023-05-07T15:34:44;20.60;99.90
69901;DHT22;57183;50.930;5.406;2023-05-07T15:37:10;20.90;99.90
69901;DHT22;57183;50.930;5.406;2023-05-07T15:39:35;21.10;99.90
69901;DHT22;57183;50.930;5.406;2023-05-07T15:42:01;21.20;99.90
69901;DHT22;57183;50.930;5.406;2023-05-07T15:44:27;21.30;99.90
69901;DHT22;57183;50.930;5.406;2023-05-07T15:46:55;21.20;99.90
69901;DHT22;57183;50.930;5.406;2023-05-07T15:49:21;21.20;99.90
69901;DHT22;57183;50.930;5.406;2023-05-07T15:51:47;21.20;99.90
69901;DHT22;57183;50.930;5.406;2023-05-07T15:54:13;21.30;99.90
69901;DHT22;57183;50.930;5.406;2023-05-07T15:56:39;21.30;99.90
69901;DHT22;57183;50.930;5.406;2023-05-07T15:59:04;21.30;99.90
69901;DHT22;57183;50.930;5.406;2023-05-07T16:01:30;21.00;99.90